Time;durP1;ratioP1;P1;durP2;ratioP2;P2;SDS_P1;SDS_P2;PMS_P1;PMS_P2;Temp;Humidity;BMP_temperature;BMP_pressure;BME280_temperature;BME280_humidity;BME280_pressure;Samples;Min_cycle;Max_cycle;Signal;HPM_P1;HPM_P2
2022/10/04 00:01:11;;;;;;;3.27;1.23;;;;;;;9.25;78.85;98238.47;6302218;28;20248;-70
2022/10/04 00:04:19;;;;;;;3.67;1.23;;;;;;;9.17;80.31;98228.44;6273571;28;20230;-70
2022/10/04 00:07:25;;;;;;;2.13;1.40;;;;;;;9.20;80.24;98232.66;6251189;28;20510;-70
2022/10/04 00:10:32;;;;;;;4.27;1.43;;;;;;;9.23;80.93;98235.09;6252961;28;20239;-70
2022/10/04 00:13:37;;;;;;;1.30;1.20;;;;;;;9.32;79.79;98231.84;6252451;28;20320;-70
2022/10/04 00:16:40;;;;;;;4.00;1.50;;;;;;;9.35;79.79;98229.00;6253601;28;20234;-70
2022/10/04 00:19:48;;;;;;;3.10;1.13;;;;;;;9.33;80.36;98222.16;6257641;28;20235;-70
2022/10/04 00:23:28;;;;;;;4.70;1.30;;;;;;;9.38;80.38;98227.97;6256147;28;20226;-71
2022/10/04 00:26:30;;;;;;;2.70;1.40;;;;;;;9.46;78.70;98226.50;6167090;28;20237;-70
2022/10/04 00:29:35;;;;;;;3.63;1.53;;;;;;;9.52;78.21;98226.09;6256565;28;20240;-70
2022/10/04 00:32:40;;;;;;;2.63;1.23;;;;;;;9.47;79.48;98222.94;6240404;28;20228;-70
2022/10/04 00:35:47;;;;;;;4.57;1.20;;;;;;;9.42;79.29;98216.25;6257692;28;20532;-70
2022/10/04 00:39:04;;;;;;;2.03;1.40;;;;;;;9.50;79.11;98222.69;6256933;28;20243;-70
2022/10/04 00:42:34;;;;;;;2.40;1.40;;;;;;;9.55;78.80;98225.88;6255785;28;20268;-70
2022/10/04 00:45:46;;;;;;;5.30;2.10;;;;;;;9.52;79.71;98215.53;6256663;28;20235;-70
2022/10/04 00:48:59;;;;;;;4.27;1.40;;;;;;;9.52;78.88;98218.19;6257138;28;20233;-69
2022/10/04 00:52:25;;;;;;;3.60;1.43;;;;;;;9.59;78.34;98222.09;6255986;28;20244;-70
2022/10/04 00:55:56;;;;;;;3.07;1.40;;;;;;;9.68;77.82;98220.63;6269488;28;20231;-70
2022/10/04 00:58:57;;;;;;;2.37;1.53;;;;;;;9.78;76.70;98215.59;6302775;28;20238;-70
2022/10/04 01:02:16;;;;;;;3.03;1.70;;;;;;;9.85;77.21;98219.47;6286494;28;20252;-69
2022/10/04 01:05:28;;;;;;;3.80;1.37;;;;;;;9.87;77.05;98212.31;6264498;28;20327;-70
2022/10/04 01:08:37;;;;;;;3.83;1.50;;;;;;;9.88;75.78;98220.09;6263894;28;20229;-70
2022/10/04 01:11:55;;;;;;;3.30;1.40;;;;;;;9.99;76.11;98219.34;6281758;28;20244;-70
2022/10/04 01:15:15;;;;;;;1.80;1.33;;;;;;;10.00;75.61;98213.13;6281320;28;20240;-69
2022/10/04 01:18:19;;;;;;;3.43;1.60;;;;;;;10.03;75.10;98214.72;6247055;28;20222;-70
2022/10/04 01:21:30;;;;;;;4.30;1.40;;;;;;;10.03;75.09;98207.66;6280555;28;20226;-70
2022/10/04 01:24:36;;;;;;;2.90;1.30;;;;;;;10.04;75.61;98204.06;6281361;28;20229;-70
2022/10/04 01:27:38;;;;;;;3.73;1.50;;;;;;;10.08;74.79;98209.97;6280345;28;20237;-70
2022/10/04 01:30:42;;;;;;;4.77;1.33;;;;;;;10.10;74.69;98206.25;6263094;28;20229;-69
2022/10/04 01:33:45;;;;;;;2.73;1.40;;;;;;;10.09;74.96;98196.66;6279747;28;20256;-70
2022/10/04 01:36:53;;;;;;;3.43;1.40;;;;;;;10.10;75.34;98200.16;6263111;28;20596;-69
2022/10/04 01:39:55;;;;;;;2.73;1.33;;;;;;;10.10;75.48;98198.34;6279960;28;20259;-70
2022/10/04 01:43:04;;;;;;;3.20;1.40;;;;;;;10.11;75.52;98204.47;6279714;28;20227;-70
2022/10/04 01:46:12;;;;;;;7.20;1.80;;;;;;;10.08;75.98;98200.25;6280540;28;20239;-70
2022/10/04 01:49:19;;;;;;;2.90;1.30;;;;;;;10.06;76.13;98196.06;6279568;28;20237;-70
2022/10/04 01:52:28;;;;;;;2.40;1.27;;;;;;;10.04;76.35;98200.59;6263379;28;20328;-70
2022/10/04 01:55:36;;;;;;;3.53;1.40;;;;;;;10.06;75.44;98194.25;6287388;28;20236;-70
2022/10/04 01:58:46;;;;;;;3.53;1.47;;;;;;;10.14;74.07;98193.72;6304382;28;20724;-70
2022/10/04 02:02:06;;;;;;;4.40;1.60;;;;;;;10.18;74.45;98185.50;6304360;28;20323;-70
2022/10/04 02:05:14;;;;;;;5.30;1.50;;;;;;;10.19;74.68;98184.56;6259666;28;20739;-71
2022/10/04 02:08:21;;;;;;;8.37;1.87;;;;;;;10.18;74.90;98176.78;6238501;28;20241;-70
2022/10/04 02:11:28;;;;;;;3.33;1.60;;;;;;;10.16;75.08;98181.28;6238424;28;20759;-70
2022/10/04 02:14:33;;;;;;;5.63;1.40;;;;;;;10.16;74.68;98186.56;6255168;28;20268;-70
2022/10/04 02:17:41;;;;;;;4.00;1.60;;;;;;;10.19;74.74;98174.00;6254467;28;20242;-70
2022/10/04 02:20:44;;;;;;;3.80;1.40;;;;;;;10.20;75.24;98177.47;6237017;28;20857;-71
2022/10/04 02:23:47;;;;;;;7.00;2.03;;;;;;;10.18;75.96;98187.31;6254736;28;20230;-70
2022/10/04 02:26:52;;;;;;;2.63;1.43;;;;;;;10.16;76.10;98190.03;6254547;28;20241;-70
2022/10/04 02:30:06;;;;;;;2.63;1.47;;;;;;;10.12;76.53;98185.06;6254841;28;20238;-70
2022/10/04 02:33:09;;;;;;;2.13;1.37;;;;;;;10.06;77.20;98180.22;6238150;28;20241;-70
2022/10/04 02:36:12;;;;;;;3.20;1.73;;;;;;;10.03;78.14;98176.00;6253899;28;20216;-69
2022/10/04 02:39:28;;;;;;;4.67;1.90;;;;;;;10.05;77.32;98181.19;6289053;28;20213;-70
2022/10/04 02:42:32;;;;;;;4.20;1.60;;;;;;;10.01;77.41;98180.53;6303259;28;20239;-70
2022/10/04 02:45:42;;;;;;;2.67;1.60;;;;;;;10.02;78.13;98181.38;6305407;28;20243;-70
2022/10/04 02:48:49;;;;;;;4.03;1.63;;;;;;;10.01;77.51;98177.91;6303559;28;20233;-70
2022/10/04 02:52:04;;;;;;;2.97;1.47;;;;;;;10.00;77.65;98170.94;6304232;28;20224;-70
2022/10/04 02:55:19;;;;;;;5.00;1.40;;;;;;;10.00;77.99;98177.06;6282346;28;20226;-71
2022/10/04 02:58:23;;;;;;;4.50;1.83;;;;;;;9.96;77.96;98177.41;6278053;28;20259;-71
2022/10/04 03:01:35;;;;;;;3.53;1.70;;;;;;;9.95;77.61;98175.72;6262430;28;20223;-71
2022/10/04 03:04:39;;;;;;;3.17;2.10;;;;;;;9.93;77.61;98169.69;6253768;28;20238;-70
2022/10/04 03:07:41;;;;;;;2.63;1.27;;;;;;;9.94;77.88;98166.09;6236745;28;20241;-70
2022/10/04 03:10:43;;;;;;;4.40;1.70;;;;;;;9.94;77.87;98174.03;6253280;28;20373;-70
2022/10/04 03:13:49;;;;;;;3.27;1.57;;;;;;;9.95;77.64;98165.16;6253516;28;20296;-70
2022/10/04 03:16:55;;;;;;;5.47;1.67;;;;;;;9.95;78.22;98170.44;6254378;28;20237;-69
2022/10/04 03:19:59;;;;;;;4.73;1.57;;;;;;;9.95;78.45;98170.44;6252870;28;20243;-70
2022/10/04 03:23:01;;;;;;;5.37;1.57;;;;;;;9.96;77.86;98180.03;6235471;28;20474;-69
2022/10/04 03:26:31;;;;;;;8.13;2.47;;;;;;;9.96;77.19;98190.59;6252908;28;20602;-70
2022/10/04 03:29:34;;;;;;;3.17;1.50;;;;;;;10.00;77.52;98179.69;6252572;28;20226;-69
2022/10/04 03:32:38;;;;;;;3.50;1.50;;;;;;;10.00;77.70;98182.34;6253550;28;20229;-70
2022/10/04 03:35:40;;;;;;;4.57;1.70;;;;;;;10.00;77.31;98181.50;6253535;28;20226;-69
2022/10/04 03:38:45;;;;;;;3.77;1.70;;;;;;;9.99;77.91;98174.53;6254522;28;20720;-70
2022/10/04 03:41:47;;;;;;;3.00;1.47;;;;;;;10.00;77.13;98182.34;6253468;28;20241;-70
2022/10/04 03:44:52;;;;;;;2.40;1.20;;;;;;;10.00;77.36;98179.69;6253241;28;20241;-69
2022/10/04 03:48:03;;;;;;;2.20;1.20;;;;;;;10.01;77.23;98177.91;6253494;28;20605;-71
2022/10/04 03:51:13;;;;;;;3.30;1.30;;;;;;;10.02;77.03;98181.38;6253073;28;20223;-69
2022/10/04 03:54:26;;;;;;;3.27;1.73;;;;;;;10.06;76.03;98178.44;6257198;28;20669;-70
2022/10/04 03:57:29;;;;;;;4.40;1.43;;;;;;;10.05;76.06;98174.13;6263073;28;20324;-70
2022/10/04 04:00:38;;;;;;;5.47;1.47;;;;;;;10.08;75.54;98176.50;6284036;28;20232;-70
2022/10/04 04:03:56;;;;;;;4.00;1.63;;;;;;;10.12;75.31;98177.16;6281725;28;20320;-70
2022/10/04 04:07:01;;;;;;;3.70;1.53;;;;;;;10.10;75.18;98179.91;6248957;28;20395;-70
2022/10/04 04:10:17;;;;;;;3.93;1.53;;;;;;;10.06;75.19;98183.72;6282802;28;20599;-69
2022/10/04 04:13:28;;;;;;;3.37;1.37;;;;;;;10.08;75.32;98187.06;6283980;28;20244;-70
2022/10/04 04:16:30;;;;;;;4.13;1.40;;;;;;;10.09;75.08;98180.00;6283610;28;20233;-70
2022/10/04 04:19:33;;;;;;;6.27;1.70;;;;;;;10.10;75.74;98182.53;6282970;28;20228;-69
2022/10/04 04:22:36;;;;;;;2.73;1.30;;;;;;;10.07;75.34;98185.41;6282292;28;20686;-70
2022/10/04 04:25:40;;;;;;;5.03;1.50;;;;;;;10.16;74.02;98178.63;6282596;28;20236;-70
2022/10/04 04:28:50;;;;;;;2.63;1.50;;;;;;;10.16;74.65;98179.47;6282416;28;20233;-69
2022/10/04 04:31:58;;;;;;;3.60;1.57;;;;;;;10.16;74.43;98176.84;6263272;28;20229;-70
2022/10/04 04:35:05;;;;;;;2.60;1.37;;;;;;;10.16;75.27;98189.19;6283291;28;20723;-70
2022/10/04 04:38:19;;;;;;;2.90;1.20;;;;;;;10.14;75.09;98189.28;6264778;28;20224;-70
2022/10/04 04:41:23;;;;;;;3.87;1.53;;;;;;;10.14;74.22;98173.47;6281138;28;20751;-70
2022/10/04 04:44:25;;;;;;;2.20;1.27;;;;;;;10.17;74.68;98186.44;6282417;28;20231;-70
2022/10/04 04:47:39;;;;;;;3.90;1.43;;;;;;;10.20;74.13;98186.25;6280839;28;20260;-70
2022/10/04 04:50:42;;;;;;;1.50;1.10;;;;;;;10.23;73.92;98179.91;6282463;28;20605;-70
2022/10/04 04:53:46;;;;;;;4.40;1.47;;;;;;;10.23;73.81;98186.03;6282253;28;20731;-69
2022/10/04 04:56:51;;;;;;;2.83;1.63;;;;;;;10.24;74.17;98206.19;6298705;28;20236;-70
2022/10/04 04:59:57;;;;;;;4.10;1.50;;;;;;;10.24;73.91;98205.34;6306328;28;20225;-70
2022/10/04 05:03:03;;;;;;;5.10;1.30;;;;;;;10.27;73.74;98189.31;6295651;28;20226;-70
2022/10/04 05:06:25;;;;;;;3.77;1.50;;;;;;;10.30;73.33;98200.47;6256703;28;20623;-70
2022/10/04 05:09:36;;;;;;;2.97;1.30;;;;;;;10.31;73.23;98207.44;6256018;28;20702;-71
2022/10/04 05:12:38;;;;;;;4.57;1.60;;;;;;;10.35;72.76;98197.50;6257627;28;20234;-69
2022/10/04 05:15:42;;;;;;;3.63;1.50;;;;;;;10.36;73.21;98199.19;6255925;28;20345;-70
2022/10/04 05:18:44;;;;;;;4.67;1.43;;;;;;;10.34;72.93;98201.09;6256733;28;20721;-70
2022/10/04 05:21:48;;;;;;;5.00;1.00;;;;;;;10.38;73.12;98204.38;6255797;28;20709;-71
2022/10/04 05:24:55;;;;;;;4.13;1.47;;;;;;;10.43;72.77;98207.50;6255434;28;20234;-70
2022/10/04 05:27:57;;;;;;;2.50;1.17;;;;;;;10.44;73.18;98206.56;6237457;28;20234;-70
2022/10/04 05:31:27;;;;;;;1.90;1.07;;;;;;;10.47;73.36;98216.91;6259314;28;20292;-70
2022/10/04 05:34:35;;;;;;;3.80;1.43;;;;;;;10.47;73.25;98212.47;6254127;28;20607;-69
2022/10/04 05:37:37;;;;;;;3.30;1.07;;;;;;;10.51;73.58;98213.09;6256265;28;20229;-70
2022/10/04 05:41:01;;;;;;;3.93;1.50;;;;;;;10.53;73.40;98216.47;6254808;28;20717;-69
2022/10/04 05:44:27;;;;;;;2.13;1.10;;;;;;;10.62;72.62;98231.63;6255636;28;20241;-70
2022/10/04 05:47:30;;;;;;;2.07;1.17;;;;;;;10.66;72.72;98228.69;6255292;28;20701;-70
2022/10/04 05:50:40;;;;;;;3.83;1.53;;;;;;;10.73;72.71;98234.34;6237674;28;20231;-70
2022/10/04 05:53:43;;;;;;;1.30;1.20;;;;;;;10.76;72.41;98226.22;6236808;28;20286;-70
2022/10/04 05:56:51;;;;;;;4.00;1.30;;;;;;;10.79;72.76;98233.06;6289549;28;20723;-70
2022/10/04 06:00:11;;;;;;;2.90;1.20;;;;;;;10.83;72.59;98237.16;6304166;28;20721;-69
2022/10/04 06:03:42;;;;;;;2.03;1.10;;;;;;;10.86;72.67;98243.09;6289717;28;20713;-70
2022/10/04 06:06:58;;;;;;;2.90;1.20;;;;;;;10.88;71.74;98241.16;6254746;28;20238;-71
2022/10/04 06:10:37;;;;;;;5.87;1.27;;;;;;;10.97;71.29;98245.78;6254401;28;20242;-70
2022/10/04 06:14:04;;;;;;;1.83;1.10;;;;;;;11.05;70.98;98235.50;6254692;28;20246;-70
2022/10/04 06:17:28;;;;;;;4.03;1.20;;;;;;;11.10;70.16;98248.34;6237457;28;20242;-70
2022/10/04 09:43:24;;;;;;;1.70;1.17;;;;;;;15.29;56.53;98334.34;4386829;23;20718;-76
2022/10/04 09:46:54;;;;;;;3.43;1.20;;;;;;;15.19;57.30;98342.31;6103216;29;20326;-77
2022/10/04 09:50:36;;;;;;;3.73;1.13;;;;;;;15.30;56.43;98344.88;6099022;29;20272;-78
2022/10/04 09:53:53;;;;;;;1.00;0.90;;;;;;;15.21;56.98;98343.03;6097219;29;20771;-76
2022/10/04 09:57:14;;;;;;;2.27;1.00;;;;;;;15.29;56.97;98345.84;6081485;29;20243;-77
2022/10/04 10:00:22;;;;;;;3.90;0.90;;;;;;;15.17;56.95;98331.00;6098039;29;20262;-77
2022/10/04 10:04:01;;;;;;;2.30;0.90;;;;;;;15.19;56.11;98338.81;6081316;29;20604;-78
2022/10/04 10:07:15;;;;;;;2.37;0.97;;;;;;;15.33;56.74;98352.59;6083401;29;20254;-78
2022/10/04 10:14:52;;;;;;;2.43;1.07;;;;;;;15.68;56.95;98356.56;6109611;29;20238;-77
2022/10/04 10:18:25;;;;;;;1.53;0.90;;;;;;;15.85;56.97;98361.25;6000744;29;20258;-78
2022/10/04 10:21:53;;;;;;;1.33;0.90;;;;;;;15.99;55.92;98358.13;6006446;29;20311;-76
2022/10/04 10:25:20;;;;;;;2.10;0.93;;;;;;;16.12;54.98;98364.03;6005920;29;20269;-76
2022/10/04 10:28:24;;;;;;;3.40;1.10;;;;;;;15.90;55.84;98358.97;6000624;29;20244;-77
2022/10/04 10:31:31;;;;;;;3.17;1.00;;;;;;;15.92;55.33;98365.00;6018442;29;20249;-77
2022/10/04 10:34:43;;;;;;;1.47;0.90;;;;;;;15.81;55.63;98367.81;6001754;29;21092;-77
2022/10/04 10:38:23;;;;;;;10.23;1.00;;;;;;;15.95;55.22;98367.41;5985320;29;20245;-76
2022/10/04 10:41:56;;;;;;;4.20;1.00;;;;;;;16.07;54.45;98376.91;5999219;29;20249;-77
2022/10/04 10:45:13;;;;;;;3.10;0.97;;;;;;;16.09;53.67;98374.13;5979257;29;20700;-77
2022/10/04 10:48:34;;;;;;;2.23;0.93;;;;;;;15.99;54.46;98376.78;5977124;29;20701;-77
2022/10/04 10:51:56;;;;;;;1.57;1.10;;;;;;;15.92;54.79;98380.97;5984661;29;20227;-77
2022/10/04 10:55:08;;;;;;;1.80;0.97;;;;;;;16.03;55.01;98372.03;6068097;29;20232;-77
2022/10/04 10:58:13;;;;;;;3.47;0.90;;;;;;;16.01;54.97;98374.81;6082629;29;20585;-78
2022/10/04 11:01:53;;;;;;;2.23;0.70;;;;;;;16.12;55.50;98385.34;6084806;29;20278;-77
2022/10/04 11:05:13;;;;;;;3.20;1.03;;;;;;;16.27;54.59;98380.41;6082782;29;20224;-77
2022/10/04 11:09:11;;;;;;;4.60;1.27;;;;;;;16.47;55.16;98374.06;6085678;29;20243;-76
2022/10/04 11:12:31;;;;;;;2.27;1.00;;;;;;;16.30;54.54;98390.78;6014024;29;20254;-76
2022/10/04 11:16:08;;;;;;;1.70;0.60;;;;;;;17.03;53.08;98375.06;6085143;29;20265;-75
2022/10/04 11:19:14;;;;;;;1.67;0.90;;;;;;;-144.22;100.00;60274.75;6084690;29;20255;-77
2022/10/04 11:22:48;;;;;;;2.37;0.80;;;;;;;17.43;100.00;60274.75;6085696;29;20227;-77
2022/10/04 11:26:18;;;;;;;2.17;1.07;;;;;;;-144.22;100.00;60274.75;6043108;29;20228;-77
2022/10/04 11:29:29;;;;;;;2.83;0.93;;;;;;;17.61;100.00;60274.75;6084142;29;20231;-77
2022/10/04 11:33:06;;;;;;;3.53;1.17;;;;;;;-144.22;100.00;60274.75;6067851;29;20243;-76
2022/10/04 11:36:22;;;;;;;1.30;0.80;;;;;;;17.77;100.00;60274.75;6084623;29;20626;-77
2022/10/04 11:40:01;;;;;;;1.67;0.97;;;;;;;-144.22;100.00;60274.75;6084359;29;20313;-77
2022/10/04 11:43:12;;;;;;;4.27;1.10;;;;;;;-144.22;100.00;60274.75;6083256;29;20243;-77
2022/10/04 11:46:34;;;;;;;2.00;0.90;;;;;;;188.01;100.00;60274.75;6082944;29;20224;-77
2022/10/04 11:49:56;;;;;;;1.43;0.80;;;;;;;-144.22;100.00;60274.75;6083396;29;20758;-77
2022/10/04 11:53:20;;;;;;;1.57;0.90;;;;;;;-144.22;100.00;60274.75;6065898;29;20220;-77
2022/10/04 11:56:36;;;;;;;3.43;0.97;;;;;;;-144.22;100.00;60274.75;6087190;29;20273;-77
2022/10/04 11:59:56;;;;;;;2.47;0.70;;;;;;;-144.22;100.00;60274.75;6075874;29;20243;-77
2022/10/04 12:03:29;;;;;;;2.67;0.80;;;;;;;188.01;100.00;60274.75;6084948;29;20737;-78
2022/10/04 12:06:50;;;;;;;2.87;1.20;;;;;;;-144.22;100.00;60274.75;6084893;29;20236;-77
2022/10/04 12:10:16;;;;;;;2.83;0.90;;;;;;;-144.22;100.00;60274.75;6083009;29;20323;-78
2022/10/04 12:13:21;;;;;;;2.03;1.00;;;;;;;-144.22;100.00;60274.75;6084956;29;20235;-78
2022/10/04 12:16:46;;;;;;;1.40;0.90;;;;;;;-144.22;100.00;60274.75;6087970;29;20711;-77
2022/10/04 12:20:10;;;;;;;1.93;0.80;;;;;;;-144.22;100.00;60274.75;6087521;29;20242;-77
2022/10/04 12:23:41;;;;;;;2.73;1.00;;;;;;;-144.22;100.00;60274.75;6072647;29;20224;-78
2022/10/04 12:27:17;;;;;;;1.97;0.80;;;;;;;-144.22;100.00;60274.75;6063486;29;20232;-76
2022/10/04 12:30:31;;;;;;;1.43;0.73;;;;;;;21.42;100.00;60274.75;6088383;29;20236;-77
2022/10/04 12:33:43;;;;;;;1.33;0.80;;;;;;;-144.22;100.00;60274.75;6065196;29;20269;-76
2022/10/04 12:37:06;;;;;;;3.10;1.10;;;;;;;-144.22;100.00;60274.75;6034379;29;20267;-77
2022/10/04 12:40:08;;;;;;;2.30;0.93;;;;;;;21.71;100.00;60274.75;6063195;29;20290;-76
2022/10/04 12:43:20;;;;;;;4.63;1.20;;;;;;;-144.22;100.00;60274.75;6067361;29;20236;-78
2022/10/04 12:46:25;;;;;;;1.03;0.80;;;;;;;22.59;100.00;60274.75;6088284;29;20648;-78
2022/10/04 12:49:53;;;;;;;0.93;0.57;;;;;;;-144.22;100.00;60274.75;6085926;29;20240;-77
2022/10/04 12:53:30;;;;;;;1.77;0.93;;;;;;;-144.22;100.00;60274.75;6080310;29;20236;-77
2022/10/04 12:57:02;;;;;;;1.43;0.70;;;;;;;-144.22;100.00;60274.75;6087452;29;20220;-78
2022/10/04 13:00:21;;;;;;;1.87;0.70;;;;;;;-144.22;100.00;60274.75;6084289;29;20711;-77
2022/10/04 13:03:39;;;;;;;2.87;0.93;;;;;;;-144.22;100.00;60274.75;6087470;29;20228;-76
2022/10/04 13:07:07;;;;;;;0.90;0.70;;;;;;;42.51;100.00;60274.75;6087872;29;20263;-77
2022/10/04 13:10:34;;;;;;;2.27;0.70;;;;;;;-144.22;100.00;60274.75;6086756;29;20675;-76
2022/10/04 13:14:02;;;;;;;1.83;0.83;;;;;;;-144.22;100.00;60274.75;6071471;29;20716;-76
2022/10/04 13:17:36;;;;;;;1.30;0.60;;;;;;;104.84;100.00;60274.75;6086041;29;20326;-76
2022/10/04 13:20:51;;;;;;;1.43;0.80;;;;;;;-144.22;100.00;60274.75;5992127;29;20241;-77
2022/10/04 13:24:13;;;;;;;2.53;0.77;;;;;;;-144.22;100.00;60274.75;5992223;29;20557;-77
2022/10/04 13:27:21;;;;;;;1.67;0.90;;;;;;;31.11;100.00;60274.75;5991184;29;20250;-76
2022/10/04 13:30:28;;;;;;;3.30;0.70;;;;;;;-144.22;100.00;60274.75;5992389;29;20744;-76
2022/10/04 13:33:55;;;;;;;2.30;0.70;;;;;;;31.96;100.00;60274.75;5993584;29;20740;-76
2022/10/04 13:37:29;;;;;;;2.25;0.70;;;;;;;-144.22;100.00;60274.75;5992286;29;20238;-76
2022/10/04 13:41:05;;;;;;;2.22;0.90;;;;;;;-144.22;100.00;60274.75;5976830;29;20245;-76
2022/10/04 13:44:44;;;;;;;0.98;0.70;;;;;;;-144.22;100.00;60274.75;5992766;29;20239;-76
2022/10/04 13:47:58;;;;;;;2.78;1.00;;;;;;;-144.22;100.00;60274.75;5976785;29;20239;-76
2022/10/04 13:51:02;;;;;;;1.55;1.00;;;;;;;-144.22;100.00;60274.75;5978069;29;20331;-76
2022/10/04 13:58:00;;;;;;;1.97;0.90;;;;;;;-144.22;100.00;60274.75;6073098;29;20228;-77
2022/10/04 14:01:30;;;;;;;2.17;1.20;;;;;;;-144.22;100.00;60274.75;6078243;29;20713;-76
2022/10/04 14:04:56;;;;;;;1.63;0.80;;;;;;;-144.22;100.00;60274.75;6074630;29;20240;-76
2022/10/04 14:08:20;;;;;;;1.20;0.60;;;;;;;-144.22;100.00;60274.75;6085273;29;20661;-76
2022/10/04 14:11:46;;;;;;;2.33;1.00;;;;;;;-144.22;100.00;60274.75;6084696;29;20614;-76
2022/10/04 14:15:07;;;;;;;1.40;1.00;;;;;;;-144.22;100.00;60274.75;6085126;29;20247;-76
2022/10/04 14:18:14;;;;;;;1.40;0.60;;;;;;;-144.22;100.00;60274.75;6084938;29;20236;-76
2022/10/04 14:22:03;;;;;;;2.73;1.00;;;;;;;-144.22;100.00;60274.75;6084561;29;20306;-76
2022/10/04 14:25:33;;;;;;;1.20;0.90;;;;;;;-144.22;100.00;60274.75;6085433;29;20429;-76
2022/10/04 14:34:00;;;;;;;1.67;0.90;;;;;;;-144.22;100.00;60274.75;6093411;29;20676;-76
2022/10/04 14:37:18;;;;;;;0.97;0.63;;;;;;;-144.22;100.00;60274.75;6084305;29;20240;-77
2022/10/04 14:40:38;;;;;;;2.10;0.80;;;;;;;-144.22;100.00;60274.75;6066532;29;20259;-77
2022/10/04 14:44:13;;;;;;;1.30;0.90;;;;;;;-144.22;100.00;60274.75;6076542;29;20593;-77
2022/10/04 14:47:41;;;;;;;1.40;0.77;;;;;;;-144.22;100.00;60274.75;6072943;29;20640;-77
2022/10/04 14:51:01;;;;;;;2.47;0.80;;;;;;;-144.22;100.00;60274.75;6086061;29;20310;-77
2022/10/04 14:54:06;;;;;;;1.03;0.80;;;;;;;-144.22;100.00;60274.75;6077128;29;20696;-76
2022/10/04 14:57:20;;;;;;;2.03;0.80;;;;;;;-144.22;100.00;60274.75;6085887;29;20235;-77
2022/10/04 15:00:32;;;;;;;1.67;0.80;;;;;;;-144.22;100.00;60274.75;6084775;29;20248;-77
2022/10/04 15:04:16;;;;;;;2.37;0.83;;;;;;;-144.22;100.00;60274.75;6085900;29;20232;-77
2022/10/04 15:07:29;;;;;;;1.00;0.80;;;;;;;-144.22;100.00;60274.75;6068268;29;20235;-77
2022/10/04 15:10:37;;;;;;;3.20;1.13;;;;;;;-144.22;100.00;60274.75;6084714;29;20240;-77
2022/10/04 15:13:57;;;;;;;3.90;0.83;;;;;;;-144.22;100.00;60274.75;6085436;29;20232;-77
2022/10/04 15:17:03;;;;;;;3.37;0.90;;;;;;;-144.22;100.00;60274.75;6085648;29;20234;-77
2022/10/04 15:20:46;;;;;;;1.67;1.07;;;;;;;-144.22;100.00;60274.75;6083842;29;20236;-77
2022/10/04 15:23:56;;;;;;;1.93;0.90;;;;;;;-144.22;100.00;60274.75;6084632;29;20710;-77
2022/10/04 15:27:22;;;;;;;2.13;0.80;;;;;;;-144.22;100.00;60274.75;6073860;29;20235;-77
2022/10/04 15:30:36;;;;;;;1.50;1.00;;;;;;;-144.22;100.00;60274.75;6049989;29;20587;-76
2022/10/04 15:34:03;;;;;;;1.30;0.90;;;;;;;-144.22;100.00;60274.75;6061851;29;20232;-77
2022/10/04 15:37:11;;;;;;;0.97;0.80;;;;;;;-144.22;100.00;60274.75;6059986;29;20814;-77
2022/10/04 15:40:37;;;;;;;1.67;0.70;;;;;;;-144.22;100.00;60274.75;6080654;29;20711;-77
2022/10/04 15:44:10;;;;;;;2.10;0.90;;;;;;;-144.22;100.00;60274.75;6068811;29;20244;-77
2022/10/04 15:47:23;;;;;;;1.17;0.77;;;;;;;-144.22;100.00;60274.75;6085668;29;20238;-77
2022/10/04 15:51:11;;;;;;;1.03;0.70;;;;;;;-144.22;100.00;60274.75;6090666;29;20227;-77
2022/10/04 15:54:39;;;;;;;2.20;1.10;;;;;;;-144.22;100.00;60274.75;6088573;29;20236;-77
2022/10/04 15:57:44;;;;;;;2.50;1.10;;;;;;;-144.22;100.00;60274.75;6087052;29;20236;-77
2022/10/04 16:00:46;;;;;;;2.33;1.00;;;;;;;-144.22;100.00;60274.75;6064638;29;20305;-77
2022/10/04 16:04:12;;;;;;;1.50;1.00;;;;;;;-144.22;100.00;60274.75;6082358;29;20644;-77
2022/10/04 16:07:31;;;;;;;1.07;0.73;;;;;;;-144.22;100.00;60274.75;6087590;29;20251;-77
2022/10/04 16:10:56;;;;;;;1.87;0.97;;;;;;;-144.22;100.00;60274.75;6089840;29;20227;-77
2022/10/04 16:14:36;;;;;;;1.40;1.00;;;;;;;-144.22;100.00;60274.75;6088437;29;20240;-77
2022/10/04 16:18:08;;;;;;;1.40;0.97;;;;;;;-144.22;100.00;60274.75;6087774;29;20231;-77
2022/10/04 16:21:40;;;;;;;2.73;1.23;;;;;;;-144.22;100.00;60274.75;6072089;29;20255;-77
2022/10/04 16:24:51;;;;;;;1.67;1.00;;;;;;;-144.22;100.00;60274.75;6087968;29;20640;-77
2022/10/04 16:27:55;;;;;;;2.30;1.10;;;;;;;-144.22;100.00;60274.75;6082468;29;20232;-77
2022/10/04 16:31:19;;;;;;;1.57;1.17;;;;;;;-144.22;100.00;60274.75;6081183;29;20228;-76
2022/10/04 16:34:27;;;;;;;2.27;1.33;;;;;;;-144.22;100.00;60274.75;6088822;29;20240;-77
2022/10/04 16:37:37;;;;;;;1.77;1.13;;;;;;;-144.22;100.00;60274.75;6089679;29;20263;-76
2022/10/04 16:40:51;;;;;;;1.00;0.90;;;;;;;-144.22;100.00;60274.75;6076827;29;20244;-77
2022/10/04 16:43:55;;;;;;;1.77;1.10;;;;;;;-144.22;100.00;60274.75;6088229;29;20239;-77
2022/10/04 16:47:09;;;;;;;3.07;1.00;;;;;;;-144.22;100.00;60274.75;6089501;29;20238;-77
2022/10/04 16:50:11;;;;;;;3.33;1.23;;;;;;;-144.22;100.00;60274.75;6089251;29;20240;-78
2022/10/04 16:53:52;;;;;;;3.87;1.20;;;;;;;-144.22;100.00;60274.75;6087963;29;20711;-78
2022/10/04 16:56:56;;;;;;;3.60;1.40;;;;;;;-144.22;100.00;60274.75;6087960;29;20231;-77
2022/10/04 17:00:32;;;;;;;4.40;1.27;;;;;;;-144.22;100.00;60274.75;6085736;29;20246;-78
2022/10/04 17:03:36;;;;;;;2.53;1.47;;;;;;;-144.22;100.00;60274.75;6064334;29;20642;-78
2022/10/04 17:07:03;;;;;;;2.83;1.30;;;;;;;-144.22;100.00;60274.75;6086848;29;20236;-78
2022/10/04 17:10:34;;;;;;;3.00;1.40;;;;;;;-144.22;100.00;60274.75;6071962;29;20745;-78
2022/10/04 17:14:01;;;;;;;1.67;1.47;;;;;;;-144.22;100.00;60274.75;6048165;29;20275;-78
2022/10/04 17:17:23;;;;;;;1.80;1.33;;;;;;;-144.22;100.00;60274.75;6065119;29;20262;-79
2022/10/04 17:20:31;;;;;;;2.40;1.13;;;;;;;-144.22;100.00;60274.75;6071035;29;20289;-78
2022/10/04 17:23:59;;;;;;;1.73;1.40;;;;;;;-144.22;100.00;60274.75;6088621;29;20289;-78
2022/10/04 17:27:25;;;;;;;5.20;1.40;;;;;;;-144.22;100.00;60274.75;6088167;29;20740;-78
2022/10/04 17:30:44;;;;;;;2.73;1.40;;;;;;;-144.22;100.00;60274.75;6084714;29;20239;-78
2022/10/04 17:33:50;;;;;;;4.90;1.57;;;;;;;-144.22;100.00;60274.75;6088228;29;20242;-78
2022/10/04 17:37:01;;;;;;;3.33;1.33;;;;;;;-144.22;100.00;60274.75;6089336;29;20323;-78
2022/10/04 17:40:16;;;;;;;6.83;1.20;;;;;;;-144.22;100.00;60274.75;6086224;29;20309;-77
2022/10/04 17:43:29;;;;;;;2.10;1.10;;;;;;;-144.22;100.00;60274.75;6085997;29;20249;-77
2022/10/04 17:46:40;;;;;;;4.67;1.83;;;;;;;-144.22;100.00;60274.75;6089682;29;20245;-78
2022/10/04 17:56:49;;;;;;;4.43;2.40;;;;;;;-144.22;100.00;60274.75;6088273;29;20234;-77
2022/10/04 18:00:08;;;;;;;3.13;1.93;;;;;;;-144.22;100.00;60274.75;6086150;29;20229;-78
2022/10/04 18:03:13;;;;;;;3.90;1.93;;;;;;;-144.22;100.00;60274.75;6086962;29;20252;-78
2022/10/04 18:06:48;;;;;;;4.43;1.90;;;;;;;-144.22;100.00;60274.75;6086248;29;20213;-78
2022/10/04 18:09:52;;;;;;;2.23;1.30;;;;;;;-144.22;100.00;60274.75;6070984;29;20229;-78
2022/10/04 18:13:22;;;;;;;2.27;1.80;;;;;;;-144.22;100.00;60274.75;6085349;29;20267;-78
2022/10/04 18:16:44;;;;;;;3.03;1.57;;;;;;;-144.22;100.00;60274.75;6062035;29;20236;-77
2022/10/04 18:19:49;;;;;;;2.57;1.87;;;;;;;-144.22;100.00;60274.75;6079011;29;20236;-77
2022/10/04 18:23:16;;;;;;;3.63;1.90;;;;;;;-144.22;100.00;60274.75;6087094;29;20244;-77
2022/10/04 18:26:21;;;;;;;3.53;1.80;;;;;;;-144.22;100.00;60274.75;6086405;29;20243;-77
2022/10/04 18:29:42;;;;;;;8.23;1.80;;;;;;;-144.22;100.00;60274.75;6084226;29;20240;-76
2022/10/04 18:32:50;;;;;;;2.87;1.30;;;;;;;-144.22;100.00;60274.75;6085764;29;20233;-77
2022/10/04 18:36:11;;;;;;;2.03;1.30;;;;;;;-144.22;100.00;60274.75;6086023;29;20446;-78
2022/10/04 18:39:17;;;;;;;2.90;1.53;;;;;;;-144.22;100.00;60274.75;6087378;29;20289;-77
2022/10/04 18:42:29;;;;;;;2.90;1.63;;;;;;;-144.22;100.00;60274.75;6086442;29;20701;-78
2022/10/04 18:45:33;;;;;;;1.27;1.07;;;;;;;-144.22;100.00;60274.75;6084725;29;20353;-78
2022/10/04 18:48:55;;;;;;;1.60;1.30;;;;;;;-144.22;100.00;60274.75;6084926;29;20286;-78
2022/10/04 18:52:25;;;;;;;2.70;1.47;;;;;;;-144.22;100.00;60274.75;6085428;29;20648;-78